sensor_id;sensor_type;location;lat;lon;timestamp;noise_LAeq;noise_LA_min;noise_LA_max;noise_LA01;noise_LA95
66463;Laerm;56827;52.178;4.500;2022-10-26T00:00:04;36.65;32.45;47.85;;
66463;Laerm;56827;52.178;4.500;2022-10-26T00:00:14;38.55;33.73;48.40;;
66463;Laerm;56827;52.178;4.500;2022-10-26T00:00:26;34.65;32.10;37.83;;
66463;Laerm;56827;52.178;4.500;2022-10-26T00:00:36;35.15;32.80;37.50;;
66463;Laerm;56827;52.178;4.500;2022-10-26T00:00:47;35.63;33.46;40.87;;
66463;Laerm;56827;52.178;4.500;2022-10-26T00:01:11;35.88;33.09;38.42;;
66463;Laerm;56827;52.178;4.500;2022-10-26T00:01:21;35.37;32.01;41.91;;
66463;Laerm;56827;52.178;4.500;2022-10-26T00:01:32;34.73;32.30;39.36;;
66463;Laerm;56827;52.178;4.500;2022-10-26T00:01:42;33.27;30.90;36.02;;
66463;Laerm;56827;52.178;4.500;2022-10-26T00:01:52;35.50;31.61;37.46;;
66463;Laerm;56827;52.178;4.500;2022-10-26T00:02:02;33.70;31.15;41.35;;
66463;Laerm;56827;52.178;4.500;2022-10-26T00:02:13;34.79;31.71;43.07;;
66463;Laerm;56827;52.178;4.500;2022-10-26T00:02:23;33.79;32.00;40.73;;
66463;Laerm;56827;52.178;4.500;2022-10-26T00:02:33;33.79;32.44;35.98;;
66463;Laerm;56827;52.178;4.500;2022-10-26T00:02:43;34.28;32.73;36.05;;
66463;Laerm;56827;52.178;4.500;2022-10-26T00:02:54;35.13;33.37;37.53;;
66463;Laerm;56827;52.178;4.500;2022-10-26T00:03:04;34.00;32.52;35.64;;
66463;Laerm;56827;52.178;4.500;2022-10-26T00:03:15;36.21;33.83;39.49;;
66463;Laerm;56827;52.178;4.500;2022-10-26T00:03:25;36.46;35.18;38.54;;
66463;Laerm;56827;52.178;4.500;2022-10-26T00:03:35;48.29;36.02;62.65;;
66463;Laerm;56827;52.178;4.500;2022-10-26T00:03:46;43.33;33.50;59.01;;
66463;Laerm;56827;52.178;4.500;2022-10-26T00:03:56;35.84;32.57;44.10;;
66463;Laerm;56827;52.178;4.500;2022-10-26T00:04:07;42.00;33.53;54.79;;
66463;Laerm;56827;52.178;4.500;2022-10-26T00:04:17;43.82;31.45;56.33;;
66463;Laerm;56827;52.178;4.500;2022-10-26T00:04:27;36.40;31.84;50.18;;
66463;Laerm;56827;52.178;4.500;2022-10-26T00:04:37;35.50;32.49;45.35;;
66463;Laerm;56827;52.178;4.500;2022-10-26T00:04:48;44.30;33.27;56.84;;
66463;Laerm;56827;52.178;4.500;2022-10-26T00:04:58;38.77;33.95;48.93;;
66463;Laerm;56827;52.178;4.500;2022-10-26T00:05:08;34.88;32.01;38.24;;
66463;Laerm;56827;52.178;4.500;2022-10-26T00:05:18;33.07;31.30;39.38;;
66463;Laerm;56827;52.178;4.500;2022-10-26T00:05:31;44.36;31.77;57.62;;
66463;Laerm;56827;52.178;4.500;2022-10-26T00:05:42;45.75;32.17;57.69;;
66463;Laerm;56827;52.178;4.500;2022-10-26T00:05:52;34.66;31.84;44.51;;
66463;Laerm;56827;52.178;4.500;2022-10-26T00:06:03;36.14;32.60;40.61;;
66463;Laerm;56827;52.178;4.500;2022-10-26T00:06:14;35.75;32.93;39.96;;
66463;Laerm;56827;52.178;4.500;2022-10-26T00:06:25;35.22;32.04;43.59;;
66463;Laerm;56827;52.178;4.500;2022-10-26T00:06:37;33.80;31.92;44.18;;
66463;Laerm;56827;52.178;4.500;2022-10-26T00:06:48;33.62;31.91;39.98;;
66463;Laerm;56827;52.178;4.500;2022-10-26T00:06:58;37.53;34.94;40.28;;
66463;Laerm;56827;52.178;4.500;2022-10-26T00:07:09;37.24;34.91;39.73;;
66463;Laerm;56827;52.178;4.500;2022-10-26T00:07:19;36.85;34.48;44.83;;
66463;Laerm;56827;52.178;4.500;2022-10-26T00:07:29;35.19;33.48;37.09;;
66463;Laerm;56827;52.178;4.500;2022-10-26T00:07:39;38.72;36.20;40.43;;
66463;Laerm;56827;52.178;4.500;2022-10-26T00:07:50;35.23;32.61;38.10;;
66463;Laerm;56827;52.178;4.500;2022-10-26T00:08:00;36.74;32.38;39.85;;
66463;Laerm;56827;52.178;4.500;2022-10-26T00:08:11;35.79;33.37;38.64;;
66463;Laerm;56827;52.178;4.500;2022-10-26T00:08:21;35.90;32.66;48.32;;
66463;Laerm;56827;52.178;4.500;2022-10-26T00:08:31;36.15;34.32;39.51;;
66463;Laerm;56827;52.178;4.500;2022-10-26T00:08:41;37.48;34.14;41.62;;
66463;Laerm;56827;52.178;4.500;2022-10-26T00:08:52;36.75;34.20;40.18;;
66463;Laerm;56827;52.178;4.500;2022-10-26T00:09:02;38.54;36.80;41.20;;
66463;Laerm;56827;52.178;4.500;2022-10-26T00:09:12;36.68;33.54;40.74;;
66463;Laerm;56827;52.178;4.500;2022-10-26T00:09:22;35.83;32.85;38.55;;
66463;Laerm;56827;52.178;4.500;2022-10-26T00:09:33;34.90;33.00;36.94;;
66463;Laerm;56827;52.178;4.500;2022-10-26T00:09:43;35.19;33.00;38.35;;
66463;Laerm;56827;52.178;4.500;2022-10-26T00:09:53;35.13;33.40;37.54;;
66463;Laerm;56827;52.178;4.500;2022-10-26T00:10:04;39.51;34.89;41.93;;
66463;Laerm;56827;52.178;4.500;2022-10-26T00:10:15;37.15;34.80;45.05;;
66463;Laerm;56827;52.178;4.500;2022-10-26T00:10:25;37.48;34.82;42.36;;
66463;Laerm;56827;52.178;4.500;2022-10-26T00:10:36;36.19;33.81;39.27;;
66463;Laerm;56827;52.178;4.500;2022-10-26T00:10:46;37.20;35.18;39.49;;
66463;Laerm;56827;52.178;4.500;2022-10-26T00:10:56;38.15;36.44;40.12;;
66463;Laerm;56827;52.178;4.500;2022-10-26T00:11:07;36.24;33.64;39.15;;
66463;Laerm;56827;52.178;4.500;2022-10-26T00:11:18;35.07;32.87;38.59;;
66463;Laerm;56827;52.178;4.500;2022-10-26T00:11:28;36.42;32.55;44.86;;
66463;Laerm;56827;52.178;4.500;2022-10-26T00:11:38;35.48;33.06;37.69;;
66463;Laerm;56827;52.178;4.500;2022-10-26T00:11:48;36.15;33.05;47.82;;
66463;Laerm;56827;52.178;4.500;2022-10-26T00:11:59;43.68;34.70;58.88;;
66463;Laerm;56827;52.178;4.500;2022-10-26T00:12:09;35.48;33.93;37.64;;
66463;Laerm;56827;52.178;4.500;2022-10-26T00:12:19;35.27;33.33;37.41;;
66463;Laerm;56827;52.178;4.500;2022-10-26T00:12:30;34.88;32.46;37.02;;
66463;Laerm;56827;52.178;4.500;2022-10-26T00:12:40;35.48;33.42;43.45;;
66463;Laerm;56827;52.178;4.500;2022-10-26T00:12:50;36.62;34.86;40.00;;
66463;Laerm;56827;52.178;4.500;2022-10-26T00:13:01;36.46;34.40;41.62;;
66463;Laerm;56827;52.178;4.500;2022-10-26T00:13:11;36.02;33.80;40.95;;
66463;Laerm;56827;52.178;4.500;2022-10-26T00:13:22;35.24;33.39;37.93;;
66463;Laerm;56827;52.178;4.500;2022-10-26T00:13:32;34.63;31.80;40.96;;
66463;Laerm;56827;52.178;4.500;2022-10-26T00:13:43;32.72;31.49;34.16;;
66463;Laerm;56827;52.178;4.500;2022-10-26T00:13:54;33.58;31.33;35.58;;
66463;Laerm;56827;52.178;4.500;2022-10-26T00:14:04;36.11;31.72;49.00;;
66463;Laerm;56827;52.178;4.500;2022-10-26T00:14:14;35.02;31.33;49.86;;
66463;Laerm;56827;52.178;4.500;2022-10-26T00:14:25;32.71;30.88;35.26;;
66463;Laerm;56827;52.178;4.500;2022-10-26T00:14:35;39.63;32.08;45.79;;
66463;Laerm;56827;52.178;4.500;2022-10-26T00:14:45;35.53;32.35;39.47;;
66463;Laerm;56827;52.178;4.500;2022-10-26T00:14:55;33.08;31.57;35.47;;
66463;Laerm;56827;52.178;4.500;2022-10-26T00:15:06;33.68;31.82;35.14;;
66463;Laerm;56827;52.178;4.500;2022-10-26T00:15:17;36.35;33.51;39.81;;
66463;Laerm;56827;52.178;4.500;2022-10-26T00:15:28;36.09;34.47;37.76;;
66463;Laerm;56827;52.178;4.500;2022-10-26T00:15:39;35.39;31.94;38.38;;
66463;Laerm;56827;52.178;4.500;2022-10-26T00:15:49;33.95;31.90;37.33;;
66463;Laerm;56827;52.178;4.500;2022-10-26T00:16:00;33.00;31.47;35.46;;
66463;Laerm;56827;52.178;4.500;2022-10-26T00:16:11;33.35;31.53;35.85;;
66463;Laerm;56827;52.178;4.500;2022-10-26T00:16:23;34.36;31.86;36.79;;
66463;Laerm;56827;52.178;4.500;2022-10-26T00:16:34;35.25;31.30;47.75;;
66463;Laerm;56827;52.178;4.500;2022-10-26T00:16:44;33.02;30.96;35.50;;
66463;Laerm;56827;52.178;4.500;2022-10-26T00:16:54;34.44;32.11;37.56;;
66463;Laerm;56827;52.178;4.500;2022-10-26T00:17:04;35.86;33.29;42.04;;
66463;Laerm;56827;52.178;4.500;2022-10-26T00:17:15;35.59;32.72;39.87;;
66463;Laerm;56827;52.178;4.500;2022-10-26T00:17:25;33.46;31.85;35.25;;
66463;Laerm;56827;52.178;4.500;2022-10-26T00:17:35;33.47;31.66;36.32;;
66463;Laerm;56827;52.178;4.500;2022-10-26T00:17:46;34.80;31.89;41.53;;
66463;Laerm;56827;52.178;4.500;2022-10-26T00:17:56;34.59;31.95;40.60;;
66463;Laerm;56827;52.178;4.500;2022-10-26T00:18:07;35.70;32.12;38.78;;
66463;Laerm;56827;52.178;4.500;2022-10-26T00:18:17;36.34;34.00;42.03;;
66463;Laerm;56827;52.178;4.500;2022-10-26T00:18:27;37.13;34.74;39.78;;
66463;Laerm;56827;52.178;4.500;2022-10-26T00:18:38;35.32;33.75;38.16;;
66463;Laerm;56827;52.178;4.500;2022-10-26T00:18:48;34.73;32.49;36.89;;
66463;Laerm;56827;52.178;4.500;2022-10-26T00:18:58;32.90;31.24;35.34;;
66463;Laerm;56827;52.178;4.500;2022-10-26T00:19:09;32.51;30.91;34.64;;
66463;Laerm;56827;52.178;4.500;2022-10-26T00:19:19;32.48;31.13;35.31;;
66463;Laerm;56827;52.178;4.500;2022-10-26T00:19:31;32.85;30.57;35.32;;
66463;Laerm;56827;52.178;4.500;2022-10-26T00:19:42;33.26;31.07;35.57;;
66463;Laerm;56827;52.178;4.500;2022-10-26T00:19:52;32.97;31.15;35.11;;
66463;Laerm;56827;52.178;4.500;2022-10-26T00:20:02;33.54;31.33;36.74;;
66463;Laerm;56827;52.178;4.500;2022-10-26T00:20:13;36.94;32.99;45.26;;
66463;Laerm;56827;52.178;4.500;2022-10-26T00:20:23;39.86;35.05;45.55;;
66463;Laerm;56827;52.178;4.500;2022-10-26T00:20:33;40.99;36.07;47.44;;
66463;Laerm;56827;52.178;4.500;2022-10-26T00:20:44;40.93;36.56;48.50;;
66463;Laerm;56827;52.178;4.500;2022-10-26T00:20:54;38.54;34.93;43.31;;
66463;Laerm;56827;52.178;4.500;2022-10-26T00:21:04;38.34;34.22;42.23;;
66463;Laerm;56827;52.178;4.500;2022-10-26T00:21:15;37.60;33.42;42.80;;
66463;Laerm;56827;52.178;4.500;2022-10-26T00:21:26;36.63;33.10;42.15;;
66463;Laerm;56827;52.178;4.500;2022-10-26T00:21:36;35.94;33.13;39.55;;
66463;Laerm;56827;52.178;4.500;2022-10-26T00:21:46;34.59;31.97;38.77;;
66463;Laerm;56827;52.178;4.500;2022-10-26T00:21:57;33.64;31.25;37.05;;
66463;Laerm;56827;52.178;4.500;2022-10-26T00:22:07;32.91;30.86;35.77;;
66463;Laerm;56827;52.178;4.500;2022-10-26T00:22:17;32.74;31.18;35.37;;
66463;Laerm;56827;52.178;4.500;2022-10-26T00:22:27;32.90;30.81;36.19;;
66463;Laerm;56827;52.178;4.500;2022-10-26T00:22:38;32.42;30.16;35.15;;
66463;Laerm;56827;52.178;4.500;2022-10-26T00:22:48;33.32;31.40;35.81;;
66463;Laerm;56827;52.178;4.500;2022-10-26T00:22:58;33.89;31.58;36.31;;
66463;Laerm;56827;52.178;4.500;2022-10-26T00:23:08;34.06;32.32;35.54;;
66463;Laerm;56827;52.178;4.500;2022-10-26T00:23:19;34.42;32.31;38.40;;
66463;Laerm;56827;52.178;4.500;2022-10-26T00:23:29;33.20;31.59;35.76;;
66463;Laerm;56827;52.178;4.500;2022-10-26T00:23:40;33.44;31.30;36.21;;
66463;Laerm;56827;52.178;4.500;2022-10-26T00:23:50;33.18;31.63;35.51;;
66463;Laerm;56827;52.178;4.500;2022-10-26T00:24:00;33.96;32.00;36.96;;
66463;Laerm;56827;52.178;4.500;2022-10-26T00:24:11;36.18;34.18;40.19;;
66463;Laerm;56827;52.178;4.500;2022-10-26T00:24:21;36.52;33.22;39.99;;
66463;Laerm;56827;52.178;4.500;2022-10-26T00:24:31;38.93;34.58;43.41;;
66463;Laerm;56827;52.178;4.500;2022-10-26T00:24:42;39.78;36.38;43.69;;
66463;Laerm;56827;52.178;4.500;2022-10-26T00:24:52;38.11;34.48;42.70;;
66463;Laerm;56827;52.178;4.500;2022-10-26T00:25:02;38.47;34.70;42.50;;
66463;Laerm;56827;52.178;4.500;2022-10-26T00:25:13;38.90;35.79;42.62;;
66463;Laerm;56827;52.178;4.500;2022-10-26T00:25:23;38.59;34.17;44.14;;
66463;Laerm;56827;52.178;4.500;2022-10-26T00:25:33;37.96;34.53;42.01;;
66463;Laerm;56827;52.178;4.500;2022-10-26T00:25:43;37.36;34.30;41.88;;
66463;Laerm;56827;52.178;4.500;2022-10-26T00:25:54;36.11;33.23;42.03;;
66463;Laerm;56827;52.178;4.500;2022-10-26T00:26:05;35.85;32.81;39.08;;
66463;Laerm;56827;52.178;4.500;2022-10-26T00:26:15;35.30;33.11;38.33;;
66463;Laerm;56827;52.178;4.500;2022-10-26T00:26:25;34.14;32.11;36.74;;
66463;Laerm;56827;52.178;4.500;2022-10-26T00:26:35;34.21;32.15;36.86;;
66463;Laerm;56827;52.178;4.500;2022-10-26T00:26:46;34.53;32.32;37.35;;
66463;Laerm;56827;52.178;4.500;2022-10-26T00:26:56;34.68;32.58;37.78;;
66463;Laerm;56827;52.178;4.500;2022-10-26T00:27:06;33.77;32.64;35.42;;
66463;Laerm;56827;52.178;4.500;2022-10-26T00:27:16;35.25;33.58;37.52;;
66463;Laerm;56827;52.178;4.500;2022-10-26T00:27:27;36.21;34.19;39.61;;
66463;Laerm;56827;52.178;4.500;2022-10-26T00:27:37;34.59;32.00;36.63;;
66463;Laerm;56827;52.178;4.500;2022-10-26T00:27:47;32.99;31.50;35.31;;
66463;Laerm;56827;52.178;4.500;2022-10-26T00:27:57;32.99;31.57;36.23;;
66463;Laerm;56827;52.178;4.500;2022-10-26T00:28:07;32.64;31.22;34.45;;
66463;Laerm;56827;52.178;4.500;2022-10-26T00:28:18;33.28;31.61;34.57;;
66463;Laerm;56827;52.178;4.500;2022-10-26T00:28:28;32.54;30.69;36.04;;
66463;Laerm;56827;52.178;4.500;2022-10-26T00:28:38;33.24;31.31;35.35;;
66463;Laerm;56827;52.178;4.500;2022-10-26T00:28:51;41.48;32.16;47.85;;
66463;Laerm;56827;52.178;4.500;2022-10-26T00:29:01;45.78;44.20;47.78;;
66463;Laerm;56827;52.178;4.500;2022-10-26T00:29:11;42.79;39.56;44.82;;
66463;Laerm;56827;52.178;4.500;2022-10-26T00:29:22;38.18;34.87;41.74;;
66463;Laerm;56827;52.178;4.500;2022-10-26T00:29:32;38.47;34.08;42.49;;
66463;Laerm;56827;52.178;4.500;2022-10-26T00:29:42;35.94;33.80;41.31;;
66463;Laerm;56827;52.178;4.500;2022-10-26T00:29:52;35.26;31.74;38.37;;
66463;Laerm;56827;52.178;4.500;2022-10-26T00:30:03;33.33;31.67;35.79;;
66463;Laerm;56827;52.178;4.500;2022-10-26T00:30:14;38.60;34.10;41.32;;
66463;Laerm;56827;52.178;4.500;2022-10-26T00:30:24;35.63;33.24;39.26;;
66463;Laerm;56827;52.178;4.500;2022-10-26T00:30:37;35.29;33.15;38.17;;
66463;Laerm;56827;52.178;4.500;2022-10-26T00:30:47;35.16;32.94;37.67;;
66463;Laerm;56827;52.178;4.500;2022-10-26T00:31:01;34.19;32.44;36.66;;
66463;Laerm;56827;52.178;4.500;2022-10-26T00:31:13;32.89;31.23;35.40;;
66463;Laerm;56827;52.178;4.500;2022-10-26T00:31:24;33.04;31.59;35.83;;
66463;Laerm;56827;52.178;4.500;2022-10-26T00:31:34;33.46;31.77;36.84;;
66463;Laerm;56827;52.178;4.500;2022-10-26T00:31:44;34.64;32.69;40.10;;
66463;Laerm;56827;52.178;4.500;2022-10-26T00:31:55;34.36;32.59;38.92;;
66463;Laerm;56827;52.178;4.500;2022-10-26T00:32:05;35.19;32.58;43.69;;
66463;Laerm;56827;52.178;4.500;2022-10-26T00:32:15;36.72;34.67;39.75;;
66463;Laerm;56827;52.178;4.500;2022-10-26T00:32:26;40.61;37.43;43.41;;
66463;Laerm;56827;52.178;4.500;2022-10-26T00:32:36;37.48;35.85;39.57;;
66463;Laerm;56827;52.178;4.500;2022-10-26T00:32:46;39.71;37.59;41.84;;
66463;Laerm;56827;52.178;4.500;2022-10-26T00:32:56;39.72;35.97;42.52;;
66463;Laerm;56827;52.178;4.500;2022-10-26T00:33:09;35.32;33.52;37.26;;
66463;Laerm;56827;52.178;4.500;2022-10-26T00:33:19;38.33;34.11;46.89;;
66463;Laerm;56827;52.178;4.500;2022-10-26T00:33:29;41.21;38.26;48.32;;
66463;Laerm;56827;52.178;4.500;2022-10-26T00:33:40;39.66;35.12;44.55;;
66463;Laerm;56827;52.178;4.500;2022-10-26T00:33:51;39.33;36.43;42.90;;
66463;Laerm;56827;52.178;4.500;2022-10-26T00:34:01;38.66;35.28;41.65;;
66463;Laerm;56827;52.178;4.500;2022-10-26T00:34:11;38.46;35.57;42.07;;
66463;Laerm;56827;52.178;4.500;2022-10-26T00:34:22;38.30;35.19;41.75;;
66463;Laerm;56827;52.178;4.500;2022-10-26T00:34:32;37.76;35.00;41.09;;
66463;Laerm;56827;52.178;4.500;2022-10-26T00:34:42;37.48;34.66;41.17;;
66463;Laerm;56827;52.178;4.500;2022-10-26T00:34:52;37.00;33.70;40.25;;
66463;Laerm;56827;52.178;4.500;2022-10-26T00:35:03;36.36;33.08;39.58;;
66463;Laerm;56827;52.178;4.500;2022-10-26T00:35:13;35.65;33.38;39.20;;
66463;Laerm;56827;52.178;4.500;2022-10-26T00:35:23;35.85;33.62;38.38;;
66463;Laerm;56827;52.178;4.500;2022-10-26T00:35:34;36.46;34.05;39.62;;
66463;Laerm;56827;52.178;4.500;2022-10-26T00:35:47;39.16;35.55;43.32;;
66463;Laerm;56827;52.178;4.500;2022-10-26T00:35:58;35.20;32.33;38.43;;
66463;Laerm;56827;52.178;4.500;2022-10-26T00:36:08;33.50;31.80;35.52;;
66463;Laerm;56827;52.178;4.500;2022-10-26T00:36:19;33.11;31.51;35.18;;
66463;Laerm;56827;52.178;4.500;2022-10-26T00:36:29;34.07;32.50;35.95;;
66463;Laerm;56827;52.178;4.500;2022-10-26T00:36:40;36.01;32.59;39.21;;
66463;Laerm;56827;52.178;4.500;2022-10-26T00:36:50;36.08;34.61;37.75;;
66463;Laerm;56827;52.178;4.500;2022-10-26T00:37:00;34.05;32.23;37.48;;
66463;Laerm;56827;52.178;4.500;2022-10-26T00:37:10;33.97;32.13;36.26;;
66463;Laerm;56827;52.178;4.500;2022-10-26T00:37:20;33.82;31.94;37.27;;
66463;Laerm;56827;52.178;4.500;2022-10-26T00:37:31;33.00;31.45;36.25;;
66463;Laerm;56827;52.178;4.500;2022-10-26T00:37:41;33.28;31.54;37.42;;
66463;Laerm;56827;52.178;4.500;2022-10-26T00:37:54;33.43;32.01;35.50;;
66463;Laerm;56827;52.178;4.500;2022-10-26T00:38:05;32.65;30.79;37.42;;
66463;Laerm;56827;52.178;4.500;2022-10-26T00:38:15;32.78;31.07;35.37;;
66463;Laerm;56827;52.178;4.500;2022-10-26T00:38:25;33.42;31.89;41.41;;
66463;Laerm;56827;52.178;4.500;2022-10-26T00:38:36;33.39;31.89;35.75;;
66463;Laerm;56827;52.178;4.500;2022-10-26T00:38:50;33.48;31.25;36.41;;
66463;Laerm;56827;52.178;4.500;2022-10-26T00:39:00;36.43;33.39;38.99;;
66463;Laerm;56827;52.178;4.500;2022-10-26T00:39:11;34.77;32.36;37.22;;
66463;Laerm;56827;52.178;4.500;2022-10-26T00:39:22;34.20;31.95;37.07;;
66463;Laerm;56827;52.178;4.500;2022-10-26T00:39:32;33.98;31.79;36.24;;
66463;Laerm;56827;52.178;4.500;2022-10-26T00:39:42;36.87;34.27;39.21;;
66463;Laerm;56827;52.178;4.500;2022-10-26T00:39:52;34.69;31.55;38.21;;
66463;Laerm;56827;52.178;4.500;2022-10-26T00:40:03;33.94;31.52;36.77;;
66463;Laerm;56827;52.178;4.500;2022-10-26T00:40:13;32.84;31.01;35.31;;
66463;Laerm;56827;52.178;4.500;2022-10-26T00:40:27;33.45;31.61;35.96;;
66463;Laerm;56827;52.178;4.500;2022-10-26T00:40:37;37.12;31.75;42.16;;
66463;Laerm;56827;52.178;4.500;2022-10-26T00:40:47;37.74;33.99;41.94;;
66463;Laerm;56827;52.178;4.500;2022-10-26T00:40:57;36.77;33.90;39.06;;
66463;Laerm;56827;52.178;4.500;2022-10-26T00:41:10;35.19;31.92;38.81;;
66463;Laerm;56827;52.178;4.500;2022-10-26T00:41:24;33.51;31.78;36.00;;
66463;Laerm;56827;52.178;4.500;2022-10-26T00:41:35;34.76;32.19;37.10;;
66463;Laerm;56827;52.178;4.500;2022-10-26T00:41:45;35.42;33.19;38.08;;
66463;Laerm;56827;52.178;4.500;2022-10-26T00:41:55;33.61;31.06;35.96;;
66463;Laerm;56827;52.178;4.500;2022-10-26T00:42:08;32.79;30.82;35.46;;
66463;Laerm;56827;52.178;4.500;2022-10-26T00:42:19;35.13;32.98;37.14;;
66463;Laerm;56827;52.178;4.500;2022-10-26T00:42:30;37.01;34.72;39.04;;
66463;Laerm;56827;52.178;4.500;2022-10-26T00:42:40;36.17;32.29;42.89;;
66463;Laerm;56827;52.178;4.500;2022-10-26T00:42:50;40.49;36.24;53.85;;
66463;Laerm;56827;52.178;4.500;2022-10-26T00:43:01;37.13;33.44;49.73;;
66463;Laerm;56827;52.178;4.500;2022-10-26T00:43:40;33.08;30.91;35.95;;
66463;Laerm;56827;52.178;4.500;2022-10-26T00:43:51;33.74;31.74;36.11;;
66463;Laerm;56827;52.178;4.500;2022-10-26T00:44:37;33.08;31.32;36.05;;
66463;Laerm;56827;52.178;4.500;2022-10-26T00:45:04;33.91;31.07;36.28;;
66463;Laerm;56827;52.178;4.500;2022-10-26T00:45:29;36.82;33.99;39.96;;
66463;Laerm;56827;52.178;4.500;2022-10-26T00:45:40;36.51;34.57;38.41;;
66463;Laerm;56827;52.178;4.500;2022-10-26T00:45:52;35.46;32.62;38.21;;
66463;Laerm;56827;52.178;4.500;2022-10-26T00:46:04;36.97;32.52;41.61;;
66463;Laerm;56827;52.178;4.500;2022-10-26T00:46:17;37.39;34.55;39.71;;
66463;Laerm;56827;52.178;4.500;2022-10-26T00:46:36;34.32;31.53;37.30;;
66463;Laerm;56827;52.178;4.500;2022-10-26T00:46:46;48.63;33.46;63.58;;
66463;Laerm;56827;52.178;4.500;2022-10-26T00:46:56;35.77;32.95;37.75;;
66463;Laerm;56827;52.178;4.500;2022-10-26T00:47:14;33.47;31.92;36.47;;
66463;Laerm;56827;52.178;4.500;2022-10-26T00:47:40;36.89;32.01;40.26;;
66463;Laerm;56827;52.178;4.500;2022-10-26T00:48:03;33.26;31.41;35.95;;
66463;Laerm;56827;52.178;4.500;2022-10-26T00:48:24;32.99;31.26;36.01;;
66463;Laerm;56827;52.178;4.500;2022-10-26T00:48:35;34.69;32.38;37.69;;
66463;Laerm;56827;52.178;4.500;2022-10-26T00:49:09;33.74;31.73;35.90;;
66463;Laerm;56827;52.178;4.500;2022-10-26T00:49:18;33.69;31.50;36.58;;
66463;Laerm;56827;52.178;4.500;2022-10-26T00:49:29;33.98;31.72;35.89;;
66463;Laerm;56827;52.178;4.500;2022-10-26T00:49:39;33.78;31.66;36.23;;
66463;Laerm;56827;52.178;4.500;2022-10-26T00:49:50;34.88;32.63;37.63;;
66463;Laerm;56827;52.178;4.500;2022-10-26T00:50:08;37.03;33.17;41.36;;
66463;Laerm;56827;52.178;4.500;2022-10-26T00:50:40;39.15;36.81;42.45;;
66463;Laerm;56827;52.178;4.500;2022-10-26T00:50:49;37.10;32.78;43.99;;
66463;Laerm;56827;52.178;4.500;2022-10-26T00:51:02;35.83;33.73;38.43;;
66463;Laerm;56827;52.178;4.500;2022-10-26T00:51:19;34.10;30.97;37.83;;
66463;Laerm;56827;52.178;4.500;2022-10-26T00:51:36;36.25;32.07;40.07;;
66463;Laerm;56827;52.178;4.500;2022-10-26T00:51:49;40.58;34.48;44.44;;
66463;Laerm;56827;52.178;4.500;2022-10-26T00:52:01;35.23;33.16;43.15;;
66463;Laerm;56827;52.178;4.500;2022-10-26T00:52:11;34.27;32.46;45.54;;
66463;Laerm;56827;52.178;4.500;2022-10-26T00:52:22;33.52;31.82;36.46;;
66463;Laerm;56827;52.178;4.500;2022-10-26T00:52:32;33.66;31.70;36.71;;
66463;Laerm;56827;52.178;4.500;2022-10-26T00:52:43;34.88;33.15;38.88;;
66463;Laerm;56827;52.178;4.500;2022-10-26T00:52:53;34.21;32.25;36.15;;
66463;Laerm;56827;52.178;4.500;2022-10-26T00:53:05;35.77;32.72;42.44;;
66463;Laerm;56827;52.178;4.500;2022-10-26T00:53:15;34.56;31.84;40.04;;
66463;Laerm;56827;52.178;4.500;2022-10-26T00:53:26;33.19;31.67;35.81;;
66463;Laerm;56827;52.178;4.500;2022-10-26T00:53:37;34.49;31.67;37.22;;
66463;Laerm;56827;52.178;4.500;2022-10-26T00:53:48;35.24;32.80;37.78;;
66463;Laerm;56827;52.178;4.500;2022-10-26T00:53:59;34.67;32.29;37.19;;
66463;Laerm;56827;52.178;4.500;2022-10-26T00:54:12;33.32;31.74;35.47;;
66463;Laerm;56827;52.178;4.500;2022-10-26T00:54:25;33.25;31.49;37.09;;
66463;Laerm;56827;52.178;4.500;2022-10-26T00:54:35;33.36;31.36;36.32;;
66463;Laerm;56827;52.178;4.500;2022-10-26T00:54:45;33.83;32.15;37.56;;
66463;Laerm;56827;52.178;4.500;2022-10-26T00:54:56;33.22;30.79;36.68;;
66463;Laerm;56827;52.178;4.500;2022-10-26T00:55:06;32.75;30.96;36.57;;
66463;Laerm;56827;52.178;4.500;2022-10-26T00:55:17;33.62;32.21;35.44;;
66463;Laerm;56827;52.178;4.500;2022-10-26T00:55:31;33.33;31.10;35.55;;
66463;Laerm;56827;52.178;4.500;2022-10-26T00:55:46;34.76;32.08;38.12;;
66463;Laerm;56827;52.178;4.500;2022-10-26T00:55:57;34.56;32.05;37.35;;
66463;Laerm;56827;52.178;4.500;2022-10-26T00:56:08;36.67;34.64;39.29;;
66463;Laerm;56827;52.178;4.500;2022-10-26T00:56:18;34.45;31.24;43.99;;
66463;Laerm;56827;52.178;4.500;2022-10-26T00:56:29;33.59;31.47;36.14;;
66463;Laerm;56827;52.178;4.500;2022-10-26T00:56:40;34.06;32.12;36.86;;
66463;Laerm;56827;52.178;4.500;2022-10-26T00:56:51;33.80;32.11;37.03;;
66463;Laerm;56827;52.178;4.500;2022-10-26T00:57:03;34.15;31.26;36.58;;
66463;Laerm;56827;52.178;4.500;2022-10-26T00:57:14;32.37;30.63;36.07;;
66463;Laerm;56827;52.178;4.500;2022-10-26T00:57:25;32.32;30.57;35.55;;
66463;Laerm;56827;52.178;4.500;2022-10-26T00:57:36;32.10;30.57;35.08;;
66463;Laerm;56827;52.178;4.500;2022-10-26T00:57:47;32.48;30.92;35.71;;
66463;Laerm;56827;52.178;4.500;2022-10-26T00:57:58;32.81;31.13;36.40;;
66463;Laerm;56827;52.178;4.500;2022-10-26T00:58:10;33.14;31.33;35.29;;
66463;Laerm;56827;52.178;4.500;2022-10-26T00:58:21;32.87;31.13;35.17;;
66463;Laerm;56827;52.178;4.500;2022-10-26T00:58:32;32.31;30.98;35.16;;
66463;Laerm;56827;52.178;4.500;2022-10-26T00:58:43;32.14;30.64;34.69;;
66463;Laerm;56827;52.178;4.500;2022-10-26T00:58:54;32.75;30.61;35.46;;
66463;Laerm;56827;52.178;4.500;2022-10-26T00:59:07;33.18;31.50;35.94;;
66463;Laerm;56827;52.178;4.500;2022-10-26T00:59:18;32.24;30.35;35.02;;
66463;Laerm;56827;52.178;4.500;2022-10-26T00:59:30;31.63;30.09;35.21;;
66463;Laerm;56827;52.178;4.500;2022-10-26T00:59:41;33.38;30.16;36.83;;
66463;Laerm;56827;52.178;4.500;2022-10-26T00:59:51;36.72;33.68;39.46;;
66463;Laerm;56827;52.178;4.500;2022-10-26T01:00:04;34.95;32.53;37.78;;
66463;Laerm;56827;52.178;4.500;2022-10-26T01:00:14;35.12;31.28;39.33;;
66463;Laerm;56827;52.178;4.500;2022-10-26T01:00:24;38.33;32.98;47.14;;
66463;Laerm;56827;52.178;4.500;2022-10-26T01:00:35;35.22;30.90;47.10;;
66463;Laerm;56827;52.178;4.500;2022-10-26T01:00:45;32.38;30.93;34.82;;
66463;Laerm;56827;52.178;4.500;2022-10-26T01:00:57;33.38;31.10;36.04;;
66463;Laerm;56827;52.178;4.500;2022-10-26T01:01:07;32.98;31.42;35.81;;
66463;Laerm;56827;52.178;4.500;2022-10-26T01:01:17;33.17;31.72;35.51;;
66463;Laerm;56827;52.178;4.500;2022-10-26T01:01:28;32.95;31.15;35.58;;
66463;Laerm;56827;52.178;4.500;2022-10-26T01:01:41;33.39;30.98;36.49;;
66463;Laerm;56827;52.178;4.500;2022-10-26T01:01:52;33.31;31.20;36.44;;
66463;Laerm;56827;52.178;4.500;2022-10-26T01:02:02;35.81;33.74;38.75;;
66463;Laerm;56827;52.178;4.500;2022-10-26T01:02:12;36.96;35.48;38.56;;
66463;Laerm;56827;52.178;4.500;2022-10-26T01:02:23;35.07;32.66;37.19;;
66463;Laerm;56827;52.178;4.500;2022-10-26T01:02:33;36.58;33.52;41.49;;
66463;Laerm;56827;52.178;4.500;2022-10-26T01:02:43;38.14;35.72;40.94;;
66463;Laerm;56827;52.178;4.500;2022-10-26T01:02:56;35.88;32.91;38.84;;
66463;Laerm;56827;52.178;4.500;2022-10-26T01:03:07;33.63;31.57;36.18;;
66463;Laerm;56827;52.178;4.500;2022-10-26T01:03:17;33.92;31.39;36.74;;
66463;Laerm;56827;52.178;4.500;2022-10-26T01:03:28;35.02;31.03;38.81;;